createdAt,value
2022-10-07T00:02:24.991Z,101696.85
2022-10-07T00:05:18.473Z,101694.48
2022-10-07T00:08:14.015Z,101693.53
2022-10-07T00:10:47.414Z,101691.75
2022-10-07T00:13:17.341Z,101698.77
2022-10-07T00:15:50.501Z,101702.29
2022-10-07T00:18:22.700Z,101702.98
2022-10-07T00:21:15.086Z,101690.46
2022-10-07T00:23:50.505Z,101690.25
2022-10-07T00:26:28.713Z,101687.22
2022-10-07T00:28:57.386Z,101687.11
2022-10-07T00:32:01.905Z,101685.80
2022-10-07T00:34:37.656Z,101683.50
2022-10-07T00:37:05.721Z,101686.08
2022-10-07T00:40:24.849Z,101686.70
2022-10-07T00:43:35.078Z,101683.43
2022-10-07T00:46:54.938Z,101683.27
2022-10-07T00:50:09.314Z,101680.98
2022-10-07T00:52:48.834Z,101675.81
2022-10-07T00:55:21.817Z,101681.09
2022-10-07T00:57:57.322Z,101675.39
2022-10-07T01:00:35.299Z,101672.66
2022-10-07T01:03:03.028Z,101673.66
2022-10-07T01:05:38.191Z,101670.89
2022-10-07T01:08:34.509Z,101672.14
2022-10-07T01:11:28.926Z,101673.02
2022-10-07T01:14:29.833Z,101671.24
2022-10-07T01:20:29.874Z,101665.88
2022-10-07T01:24:15.671Z,101664.36
2022-10-07T01:27:21.297Z,101657.70
2022-10-07T01:30:09.839Z,101655.86
2022-10-07T01:35:42.594Z,101652.92
2022-10-07T01:38:38.751Z,101647.21
2022-10-07T01:41:34.907Z,101642.22
2022-10-07T01:44:05.509Z,101638.00
2022-10-07T01:46:59.225Z,101643.59
2022-10-07T01:52:56.917Z,101637.05
2022-10-07T01:56:02.948Z,101631.17
2022-10-07T01:59:01.714Z,101628.02
2022-10-07T02:01:58.269Z,101622.02
2022-10-07T02:04:33.983Z,101621.36
2022-10-07T02:07:20.320Z,101623.46
2022-10-07T02:10:13.344Z,101621.52
2022-10-07T02:12:48.276Z,101621.33
2022-10-07T02:15:28.131Z,101619.06
2022-10-07T02:18:00.726Z,101616.27
2022-10-07T02:20:32.515Z,101612.61
2022-10-07T02:23:02.595Z,101612.42
2022-10-07T02:25:37.482Z,101610.86
2022-10-07T02:28:07.308Z,101609.70
2022-10-07T02:30:36.607Z,101608.16
2022-10-07T02:33:07.962Z,101604.73
2022-10-07T02:35:42.530Z,101603.59
2022-10-07T02:38:14.383Z,101601.20
2022-10-07T02:40:51.045Z,101603.67
2022-10-07T02:43:31.280Z,101597.91
2022-10-07T02:46:08.068Z,101595.98
2022-10-07T02:48:46.363Z,101598.75
2022-10-07T02:51:21.272Z,101598.23
2022-10-07T02:53:53.237Z,101598.73
2022-10-07T02:56:25.988Z,101596.55
2022-10-07T02:58:55.214Z,101599.79
2022-10-07T03:01:28.149Z,101598.55
2022-10-07T03:03:57.694Z,101587.58
2022-10-07T03:06:26.817Z,101588.59
2022-10-07T03:08:55.127Z,101584.94
2022-10-07T03:11:24.506Z,101584.45
2022-10-07T03:13:52.384Z,101580.81
2022-10-07T03:16:20.563Z,101584.71
2022-10-07T03:18:48.384Z,101584.58
2022-10-07T03:21:35.062Z,101583.74
2022-10-07T03:24:04.939Z,101579.80
2022-10-07T03:26:36.911Z,101577.49
2022-10-07T03:29:05.659Z,101573.39
2022-10-07T03:31:33.483Z,101572.23
2022-10-07T03:34:01.736Z,101572.62
2022-10-07T03:36:29.884Z,101571.13
2022-10-07T03:38:58.609Z,101571.20
2022-10-07T03:41:27.202Z,101564.85
2022-10-07T03:43:58.459Z,101564.41
2022-10-07T03:46:26.843Z,101562.45
2022-10-07T03:48:54.941Z,101565.55
2022-10-07T03:51:23.044Z,101560.92
2022-10-07T03:53:54.600Z,101559.07
2022-10-07T03:56:23.114Z,101557.91
2022-10-07T03:58:52.735Z,101555.04
2022-10-07T04:01:20.436Z,101554.44
2022-10-07T04:03:51.176Z,101554.30
2022-10-07T04:06:19.212Z,101549.97
2022-10-07T04:08:52.773Z,101550.88
2022-10-07T04:11:21.043Z,101545.73
2022-10-07T04:13:51.283Z,101545.41
2022-10-07T04:16:20.018Z,101543.70
2022-10-07T04:18:48.077Z,101536.96
2022-10-07T04:21:16.025Z,101537.19
2022-10-07T04:23:43.984Z,101536.89
2022-10-07T04:26:13.107Z,101532.89
2022-10-07T04:28:44.398Z,101531.35
2022-10-07T04:31:14.932Z,101530.20
2022-10-07T04:33:46.566Z,101526.83
2022-10-07T04:36:18.188Z,101527.39
2022-10-07T04:39:01.929Z,101521.91
2022-10-07T04:41:33.174Z,101518.62
2022-10-07T04:44:01.472Z,101518.45
2022-10-07T04:46:32.772Z,101517.09
2022-10-07T04:49:05.237Z,101517.10
2022-10-07T04:51:33.361Z,101518.02
2022-10-07T04:54:01.571Z,101518.74
2022-10-07T04:56:41.061Z,101517.52
2022-10-07T04:59:10.031Z,101518.56
2022-10-07T05:01:39.426Z,101514.98
2022-10-07T05:04:08.042Z,101520.23
2022-10-07T05:06:35.726Z,101523.90
2022-10-07T05:09:03.550Z,101520.11
2022-10-07T05:11:34.068Z,101517.98
2022-10-07T05:14:07.473Z,101515.58
2022-10-07T05:16:36.102Z,101514.80
2022-10-07T05:19:04.312Z,101517.50
2022-10-07T05:21:33.856Z,101514.97
2022-10-07T05:24:02.461Z,101511.77
2022-10-07T05:26:34.504Z,101508.47
2022-10-07T05:29:03.604Z,101507.08
2022-10-07T05:31:37.095Z,101504.77
2022-10-07T05:34:05.645Z,101510.66
2022-10-07T05:36:35.237Z,101511.48
2022-10-07T05:39:03.888Z,101510.93
2022-10-07T05:41:45.284Z,101504.61
2022-10-07T05:44:14.436Z,101504.70
2022-10-07T05:46:42.827Z,101503.71
2022-10-07T05:49:11.961Z,101499.77
2022-10-07T05:51:40.705Z,101487.95
2022-10-07T05:54:08.818Z,101487.43
2022-10-07T05:56:39.891Z,101489.67
2022-10-07T05:59:09.866Z,101483.58
2022-10-07T06:01:38.253Z,101485.45
2022-10-07T06:04:11.731Z,101489.67
2022-10-07T06:06:42.219Z,101482.58
2022-10-07T06:09:32.101Z,101481.86
2022-10-07T06:12:21.454Z,101480.28
2022-10-07T06:14:49.958Z,101478.48
2022-10-07T06:17:18.199Z,101479.04
2022-10-07T06:19:46.850Z,101484.50
2022-10-07T06:22:15.181Z,101480.19
2022-10-07T06:24:45.415Z,101475.98
2022-10-07T06:27:13.756Z,101478.09
2022-10-07T06:29:42.535Z,101478.94
2022-10-07T06:32:11.138Z,101479.08
2022-10-07T06:34:40.016Z,101470.41
2022-10-07T06:37:07.641Z,101468.95
2022-10-07T06:39:35.581Z,101467.01
2022-10-07T06:42:03.725Z,101467.00
2022-10-07T06:44:39.598Z,101467.34
2022-10-07T06:47:11.857Z,101473.96
2022-10-07T06:49:40.893Z,101478.48
2022-10-07T06:52:08.817Z,101475.19
2022-10-07T06:54:37.278Z,101477.84
2022-10-07T06:57:20.416Z,101478.70
2022-10-07T06:59:55.159Z,101479.56
2022-10-07T07:02:25.647Z,101482.13
2022-10-07T07:04:57.637Z,101481.39
2022-10-07T07:07:26.415Z,101480.29
2022-10-07T07:09:54.613Z,101474.00
2022-10-07T07:12:25.496Z,101475.73
2022-10-07T07:14:54.429Z,101474.86
2022-10-07T07:17:22.501Z,101472.75
2022-10-07T07:19:50.449Z,101471.13
2022-10-07T07:22:18.608Z,101469.77
2022-10-07T07:24:46.815Z,101461.60
2022-10-07T07:27:15.326Z,101454.67
2022-10-07T07:29:44.376Z,101449.81
2022-10-07T07:32:12.416Z,101448.73
2022-10-07T07:34:42.524Z,101441.60
2022-10-07T07:37:12.190Z,101446.39
2022-10-07T07:39:44.663Z,101447.29
2022-10-07T07:42:14.903Z,101440.66
2022-10-07T07:44:42.798Z,101440.31
2022-10-07T07:47:12.521Z,101432.79
2022-10-07T07:49:41.079Z,101429.35
2022-10-07T07:52:11.435Z,101424.98
2022-10-07T07:54:47.716Z,101425.15
2022-10-07T07:57:15.547Z,101420.03
2022-10-07T07:59:43.221Z,101413.89
2022-10-07T08:02:12.414Z,101416.67
2022-10-07T08:04:42.232Z,101410.02
2022-10-07T08:07:13.141Z,101410.11
2022-10-07T08:09:41.491Z,101396.27
2022-10-07T08:12:09.798Z,101402.59
2022-10-07T08:14:40.608Z,101404.07
2022-10-07T08:17:09.200Z,101398.14
2022-10-07T08:19:38.711Z,101395.66
2022-10-07T08:22:07.207Z,101387.04
2022-10-07T08:24:35.422Z,101384.45
2022-10-07T08:27:03.161Z,101383.95
2022-10-07T08:29:31.096Z,101381.64
2022-10-07T08:31:59.446Z,101377.42
2022-10-07T08:34:27.247Z,101377.17
2022-10-07T08:36:56.220Z,101374.91
2022-10-07T08:39:24.774Z,101373.92
2022-10-07T08:42:13.247Z,101370.73
2022-10-07T08:44:44.417Z,101367.17
2022-10-07T08:47:32.455Z,101363.61
2022-10-07T08:50:16.704Z,101357.98
2022-10-07T08:52:53.103Z,101355.55
2022-10-07T08:55:33.359Z,101354.64
2022-10-07T08:58:31.043Z,101355.13
2022-10-07T09:01:29.573Z,101355.17
2022-10-07T09:04:26.953Z,101349.45
2022-10-07T09:07:05.903Z,101343.25
2022-10-07T09:09:46.186Z,101343.98
2022-10-07T09:12:23.265Z,101339.41
2022-10-07T09:14:55.761Z,101331.52
2022-10-07T09:17:45.267Z,101327.16
2022-10-07T09:20:17.668Z,101319.30
2022-10-07T09:22:57.644Z,101313.35
2022-10-07T09:25:28.173Z,101312.09
2022-10-07T09:27:56.724Z,101307.73
2022-10-07T09:30:28.040Z,101304.45
2022-10-07T09:32:57.115Z,101301.85
2022-10-07T09:35:27.615Z,101295.39
2022-10-07T09:38:04.061Z,101295.60
2022-10-07T09:41:05.350Z,101287.89
2022-10-07T09:43:35.178Z,101289.98
2022-10-07T09:46:03.001Z,101282.45
2022-10-07T09:48:34.349Z,101276.70
2022-10-07T09:51:16.661Z,101277.55
2022-10-07T09:54:18.985Z,101270.93
2022-10-07T09:56:47.519Z,101269.27
2022-10-07T09:59:28.883Z,101260.52
2022-10-07T10:02:21.053Z,101258.11
2022-10-07T10:04:54.705Z,101254.83
2022-10-07T10:07:28.847Z,101247.27
2022-10-07T10:10:12.445Z,101249.66
2022-10-07T10:12:49.457Z,101245.61
2022-10-07T10:15:35.990Z,101245.86
2022-10-07T10:18:26.463Z,101250.33
2022-10-07T10:20:54.522Z,101248.77
2022-10-07T10:23:37.178Z,101245.09
2022-10-07T10:26:33.656Z,101235.17
2022-10-07T10:29:30.361Z,101224.10
2022-10-07T10:32:01.003Z,101220.13
2022-10-07T10:34:52.121Z,101213.78
2022-10-07T10:37:43.126Z,101207.30
2022-10-07T10:40:36.339Z,101208.64
2022-10-07T10:43:22.921Z,101200.33
2022-10-07T10:45:56.545Z,101196.91
2022-10-07T10:48:55.473Z,101190.36
2022-10-07T10:51:35.243Z,101179.49
2022-10-07T10:54:15.860Z,101167.12
2022-10-07T10:57:09.602Z,101164.21
2022-10-07T10:59:49.527Z,101156.32
2022-10-07T11:02:44.463Z,101151.92
2022-10-07T11:05:35.574Z,101148.48
2022-10-07T11:08:25.304Z,101145.16
2022-10-07T11:11:02.839Z,101142.69
2022-10-07T11:13:54.583Z,101136.00
2022-10-07T11:16:31.773Z,101124.63
2022-10-07T11:19:04.827Z,101118.05
2022-10-07T11:21:50.833Z,101113.80
2022-10-07T11:24:41.136Z,101108.73
2022-10-07T11:27:24.934Z,101110.27
2022-10-07T11:29:58.124Z,101105.68
2022-10-07T11:32:38.295Z,101098.40
2022-10-07T11:35:21.453Z,101099.80
2022-10-07T11:37:58.651Z,101091.40
2022-10-07T11:40:31.273Z,101090.64
2022-10-07T11:43:09.040Z,101085.31
2022-10-07T11:45:44.813Z,101079.94
2022-10-07T11:48:17.893Z,101071.70
2022-10-07T11:50:55.270Z,101060.98
2022-10-07T11:53:28.548Z,101062.16
2022-10-07T11:56:07.035Z,101055.51
2022-10-07T11:58:39.323Z,101049.71
2022-10-07T12:01:25.533Z,101040.62
2022-10-07T12:04:13.012Z,101041.45
2022-10-07T12:07:19.265Z,101033.00
2022-10-07T12:10:21.851Z,101026.90
2022-10-07T12:12:58.430Z,101020.02
2022-10-07T12:15:35.584Z,101011.85
2022-10-07T12:18:05.612Z,101006.33
2022-10-07T12:20:33.566Z,101004.95
2022-10-07T12:23:17.338Z,101001.94
2022-10-07T12:25:49.146Z,100999.68
2022-10-07T12:28:35.476Z,100993.40
2022-10-07T12:31:27.311Z,100987.06
2022-10-07T12:34:09.324Z,100983.89
2022-10-07T12:36:43.126Z,100975.26
2022-10-07T12:39:11.982Z,100969.19
2022-10-07T12:41:40.816Z,100966.48
2022-10-07T12:44:24.059Z,100964.67
2022-10-07T12:47:07.163Z,100957.27
2022-10-07T12:49:41.085Z,100958.73
2022-10-07T12:52:23.423Z,100952.40
2022-10-07T12:54:55.781Z,100946.86
2022-10-07T12:57:32.775Z,100942.90
2022-10-07T13:00:03.204Z,100940.18
2022-10-07T13:02:52.489Z,100937.02
2022-10-07T13:05:50.805Z,100931.08
2022-10-07T13:08:40.406Z,100922.24
2022-10-07T13:11:49.409Z,100916.87
2022-10-07T13:14:28.134Z,100915.82
2022-10-07T13:17:04.434Z,100911.77
2022-10-07T13:20:11.268Z,100905.10
2022-10-07T13:22:45.651Z,100900.33
2022-10-07T13:25:15.301Z,100898.34
2022-10-07T13:27:50.410Z,100895.39
2022-10-07T13:30:41.105Z,100891.76
2022-10-07T13:33:31.321Z,100886.13
2022-10-07T13:36:30.086Z,100876.22
2022-10-07T13:39:12.174Z,100868.52
2022-10-07T13:41:44.342Z,100863.48
2022-10-07T13:44:20.782Z,100857.86
2022-10-07T13:46:57.998Z,100850.83
2022-10-07T13:49:30.509Z,100846.17
2022-10-07T13:52:03.123Z,100840.86
2022-10-07T13:54:36.093Z,100834.61
2022-10-07T13:57:12.263Z,100826.45
2022-10-07T13:59:41.125Z,100824.08
2022-10-07T14:02:12.472Z,100818.90
2022-10-07T14:05:00.302Z,100816.27
2022-10-07T14:07:29.099Z,100814.16
2022-10-07T14:09:59.746Z,100812.30
2022-10-07T14:12:49.303Z,100803.64
2022-10-07T14:15:24.435Z,100800.88
2022-10-07T14:17:58.530Z,100795.35
2022-10-07T14:20:32.163Z,100793.58
2022-10-07T14:23:02.943Z,100787.88
2022-10-07T14:25:32.605Z,100786.20
2022-10-07T14:28:17.732Z,100784.98
2022-10-07T14:31:25.336Z,100781.27
2022-10-07T14:34:29.832Z,100774.66
2022-10-07T14:37:03.905Z,100769.42
2022-10-07T14:39:35.911Z,100765.67
2022-10-07T14:42:05.834Z,100764.61
2022-10-07T14:44:34.132Z,100759.12
2022-10-07T14:47:25.394Z,100757.85
2022-10-07T14:49:55.205Z,100755.14
2022-10-07T14:52:29.021Z,100751.88
2022-10-07T14:55:03.170Z,100749.09
2022-10-07T14:57:31.323Z,100747.52
2022-10-07T14:59:59.336Z,100743.61
2022-10-07T15:02:27.441Z,100743.09
2022-10-07T15:04:55.080Z,100736.14
2022-10-07T15:07:22.982Z,100731.29
2022-10-07T15:09:50.577Z,100733.51
2022-10-07T15:12:18.326Z,100726.58
2022-10-07T15:14:46.148Z,100729.98
2022-10-07T15:17:14.435Z,100730.59
2022-10-07T15:19:42.186Z,100726.79
2022-10-07T15:22:10.000Z,100728.59
2022-10-07T15:24:37.771Z,100726.80
2022-10-07T15:27:07.160Z,100726.66
2022-10-07T15:29:34.850Z,100729.51
2022-10-07T15:32:03.159Z,100727.10
2022-10-07T15:34:31.023Z,100726.49
2022-10-07T15:37:00.467Z,100722.20
2022-10-07T15:39:28.217Z,100723.96
2022-10-07T15:41:56.096Z,100722.40
2022-10-07T15:44:23.959Z,100721.84
2022-10-07T15:46:54.404Z,100719.98
2022-10-07T15:49:22.354Z,100718.30
2022-10-07T15:51:50.158Z,100718.81
2022-10-07T15:54:17.876Z,100718.11
2022-10-07T15:56:45.681Z,100718.11
2022-10-07T15:59:13.731Z,100713.70
2022-10-07T16:01:41.423Z,100714.27
2022-10-07T16:04:12.376Z,100710.20
2022-10-07T16:06:40.306Z,100710.61
2022-10-07T16:09:08.012Z,100716.23
2022-10-07T16:11:35.775Z,100715.86
2022-10-07T16:14:03.959Z,100714.96
2022-10-07T16:16:32.636Z,100710.64
2022-10-07T16:19:01.043Z,100704.64
2022-10-07T16:21:30.265Z,100704.52
2022-10-07T16:24:12.859Z,100701.83
2022-10-07T16:26:41.516Z,100701.35
2022-10-07T16:29:33.532Z,100700.40
2022-10-07T16:32:02.233Z,100698.92
2022-10-07T16:34:30.196Z,100697.98
2022-10-07T16:36:58.688Z,100696.67
2022-10-07T16:39:26.621Z,100697.48
2022-10-07T16:41:56.570Z,100699.00
2022-10-07T16:44:24.916Z,100693.98
2022-10-07T16:46:56.861Z,100693.31
2022-10-07T16:49:26.353Z,100690.00
2022-10-07T16:51:54.667Z,100690.33
2022-10-07T16:54:22.536Z,100687.40
2022-10-07T16:56:52.611Z,100688.03
2022-10-07T16:59:24.018Z,100682.84
2022-10-07T17:01:56.755Z,100687.51
2022-10-07T17:04:25.506Z,100687.20
2022-10-07T17:06:54.217Z,100686.92
2022-10-07T17:09:24.887Z,100686.60
2022-10-07T17:11:53.000Z,100685.11
2022-10-07T17:14:21.842Z,100681.73
2022-10-07T17:16:54.116Z,100681.94
2022-10-07T17:19:28.967Z,100676.09
2022-10-07T17:21:58.726Z,100676.19
2022-10-07T17:24:26.928Z,100679.08
2022-10-07T17:26:55.182Z,100675.06
2022-10-07T17:29:27.408Z,100670.54
2022-10-07T17:31:56.507Z,100668.63
2022-10-07T17:34:24.203Z,100663.80
2022-10-07T17:36:52.111Z,100662.92
2022-10-07T17:39:20.191Z,100665.20
2022-10-07T17:41:48.238Z,100666.64
2022-10-07T17:44:16.834Z,100666.08
2022-10-07T17:46:45.406Z,100665.95
2022-10-07T17:49:16.060Z,100658.69
2022-10-07T17:51:44.451Z,100658.88
2022-10-07T17:54:14.343Z,100659.02
2022-10-07T17:56:44.526Z,100658.08
2022-10-07T17:59:12.502Z,100656.81
2022-10-07T18:01:41.565Z,100652.45
2022-10-07T18:04:13.674Z,100650.41
2022-10-07T18:06:43.505Z,100648.33
2022-10-07T18:09:15.632Z,100641.36
2022-10-07T18:12:01.938Z,100641.17
2022-10-07T18:14:53.455Z,100638.18
2022-10-07T18:17:22.877Z,100640.50
2022-10-07T18:19:50.634Z,100643.14
2022-10-07T18:22:19.331Z,100643.51
2022-10-07T18:24:47.439Z,100644.10
2022-10-07T18:27:15.332Z,100641.17
2022-10-07T18:29:42.961Z,100637.94
2022-10-07T18:32:10.941Z,100634.06
2022-10-07T18:34:38.648Z,100632.98
2022-10-07T18:37:06.476Z,100629.65
2022-10-07T18:39:34.416Z,100629.60
2022-10-07T18:42:04.570Z,100628.02
2022-10-07T18:44:33.251Z,100630.73
2022-10-07T18:47:01.300Z,100630.76
2022-10-07T18:49:29.277Z,100628.73
2022-10-07T18:51:56.895Z,100629.42
2022-10-07T18:54:24.670Z,100623.59
2022-10-07T18:56:52.674Z,100621.15
2022-10-07T18:59:20.435Z,100617.10
2022-10-07T19:01:50.963Z,100615.25
2022-10-07T19:04:19.748Z,100614.70
2022-10-07T19:06:47.659Z,100615.88
2022-10-07T19:09:18.431Z,100617.73
2022-10-07T19:11:46.959Z,100615.79
2022-10-07T19:14:15.705Z,100616.89
2022-10-07T19:16:51.267Z,100614.91
2022-10-07T19:19:22.327Z,100614.45
2022-10-07T19:21:54.148Z,100613.52
2022-10-07T19:24:42.453Z,100614.27
2022-10-07T19:27:10.441Z,100613.75
2022-10-07T19:29:38.069Z,100615.39
2022-10-07T19:32:08.542Z,100610.17
2022-10-07T19:34:37.384Z,100611.04
2022-10-07T19:37:05.547Z,100611.94
2022-10-07T19:39:33.242Z,100610.54
2022-10-07T19:42:01.257Z,100604.65
2022-10-07T19:44:28.965Z,100598.77
2022-10-07T19:46:56.600Z,100594.46
2022-10-07T19:49:24.574Z,100592.66
2022-10-07T19:51:53.466Z,100590.05
2022-10-07T19:54:21.122Z,100590.10
2022-10-07T19:56:49.662Z,100591.49
2022-10-07T19:59:17.350Z,100593.82
2022-10-07T20:01:47.395Z,100592.65
2022-10-07T20:04:21.145Z,100591.81
2022-10-07T20:06:48.973Z,100594.19
2022-10-07T20:09:18.737Z,100593.92
2022-10-07T20:11:47.131Z,100592.70
2022-10-07T20:14:16.209Z,100592.29
2022-10-07T20:16:44.415Z,100590.58
2022-10-07T20:19:18.705Z,100583.02
2022-10-07T20:21:47.695Z,100585.64
2022-10-07T20:24:16.905Z,100583.50
2022-10-07T20:26:45.664Z,100581.73
2022-10-07T20:29:25.259Z,100579.27
2022-10-07T20:31:54.747Z,100571.84
2022-10-07T20:34:24.635Z,100570.92
2022-10-07T20:36:54.866Z,100570.15
2022-10-07T20:39:41.436Z,100572.84
2022-10-07T20:42:22.140Z,100573.63
2022-10-07T20:44:51.408Z,100568.77
2022-10-07T20:47:22.912Z,100567.78
2022-10-07T20:49:51.696Z,100566.47
2022-10-07T20:52:24.856Z,100566.16
2022-10-07T20:54:54.192Z,100562.83
2022-10-07T20:57:27.729Z,100559.17
2022-10-07T20:59:55.611Z,100558.90
2022-10-07T21:02:24.267Z,100563.08
2022-10-07T21:04:52.127Z,100562.66
2022-10-07T21:07:19.972Z,100556.78
2022-10-07T21:09:47.991Z,100560.85
2022-10-07T21:12:18.240Z,100559.86
2022-10-07T21:14:48.452Z,100558.52
2022-10-07T21:17:16.946Z,100552.19
2022-10-07T21:19:44.706Z,100554.19
2022-10-07T21:22:12.383Z,100551.09
2022-10-07T21:24:40.107Z,100551.80
2022-10-07T21:27:07.999Z,100551.02
2022-10-07T21:29:40.427Z,100549.35
2022-10-07T21:32:11.382Z,100547.71
2022-10-07T21:34:39.070Z,100545.08
2022-10-07T21:37:06.688Z,100542.89
2022-10-07T21:39:35.410Z,100539.23
2022-10-07T21:42:03.189Z,100540.14
2022-10-07T21:44:33.377Z,100540.61
2022-10-07T21:47:01.723Z,100541.45
2022-10-07T21:49:29.473Z,100533.61
2022-10-07T21:51:57.100Z,100531.61
2022-10-07T21:54:25.288Z,100527.16
2022-10-07T21:56:52.883Z,100524.83
2022-10-07T21:59:20.835Z,100518.98
2022-10-07T22:01:48.837Z,100520.30
2022-10-07T22:04:18.368Z,100516.11
2022-10-07T22:07:05.374Z,100509.62
2022-10-07T22:09:33.461Z,100506.25
2022-10-07T22:12:01.107Z,100506.02
2022-10-07T22:14:28.899Z,100508.83
2022-10-07T22:16:57.236Z,100504.79
2022-10-07T22:19:25.297Z,100500.09
2022-10-07T22:21:53.182Z,100500.67
2022-10-07T22:24:21.249Z,100497.66
2022-10-07T22:26:51.048Z,100498.70
2022-10-07T22:29:20.454Z,100498.49
2022-10-07T22:31:48.237Z,100497.59
2022-10-07T22:34:34.602Z,100495.83
2022-10-07T22:37:02.384Z,100496.11
2022-10-07T22:39:30.448Z,100490.19
2022-10-07T22:41:58.859Z,100486.92
2022-10-07T22:44:28.138Z,100485.52
2022-10-07T22:46:56.830Z,100485.55
2022-10-07T22:49:29.569Z,100487.65
2022-10-07T22:51:59.790Z,100484.44
2022-10-07T22:54:28.713Z,100482.85
2022-10-07T22:56:56.509Z,100484.08
2022-10-07T22:59:24.377Z,100480.35
2022-10-07T23:01:53.044Z,100482.35
2022-10-07T23:04:21.495Z,100475.04
2022-10-07T23:06:49.820Z,100474.81
2022-10-07T23:09:19.244Z,100478.36
2022-10-07T23:11:47.157Z,100477.36
2022-10-07T23:14:14.922Z,100475.27
2022-10-07T23:16:44.326Z,100475.56
2022-10-07T23:19:12.063Z,100474.25
2022-10-07T23:21:39.865Z,100480.77
2022-10-07T23:24:08.443Z,100476.30
2022-10-07T23:26:36.849Z,100474.59
2022-10-07T23:29:05.335Z,100472.53
2022-10-07T23:31:33.718Z,100476.92
2022-10-07T23:34:01.943Z,100469.58
2022-10-07T23:36:30.011Z,100470.17
2022-10-07T23:39:00.019Z,100471.10
2022-10-07T23:41:29.851Z,100474.17
2022-10-07T23:44:00.491Z,100470.11
2022-10-07T23:46:29.375Z,100468.61
2022-10-07T23:48:57.012Z,100467.75
2022-10-07T23:51:27.873Z,100468.22
2022-10-07T23:53:56.629Z,100463.91
2022-10-07T23:56:24.299Z,100465.59
2022-10-07T23:58:52.528Z,100457.13
